Time;durP1;ratioP1;P1;durP2;ratioP2;P2;SDS_P1;SDS_P2;PMS_P1;PMS_P2;Temp;Humidity;BMP_temperature;BMP_pressure;BME280_temperature;BME280_humidity;BME280_pressure;Samples;Min_cycle;Max_cycle;Signal;HPM_P1;HPM_P2
2023/01/05 00:00:10;;;;;;;11.40;7.40;;;11.30;99.90;;;;;;5080572;27;20482;-61
2023/01/05 00:02:37;;;;;;;7.30;4.70;;;11.40;99.90;;;;;;5048186;28;20497;-61
2023/01/05 00:05:03;;;;;;;14.13;8.30;;;11.30;99.90;;;;;;5052359;28;21562;-62
2023/01/05 00:07:31;;;;;;;6.23;4.90;;;11.30;99.90;;;;;;5048798;28;20490;-62
2023/01/05 00:09:58;;;;;;;13.20;7.50;;;11.30;99.90;;;;;;5046157;28;21481;-62
2023/01/05 00:23:44;;;;;;;7.53;4.97;;;11.20;99.90;;;;;;4992612;28;20522;-61
2023/01/05 00:26:11;;;;;;;10.67;7.27;;;11.40;99.90;;;;;;5037544;28;20810;-61
2023/01/05 00:28:38;;;;;;;10.47;4.77;;;11.50;99.90;;;;;;5051470;28;20495;-61
2023/01/05 00:31:05;;;;;;;9.40;6.00;;;11.50;99.90;;;;;;5062376;28;20486;-62
2023/01/05 00:33:32;;;;;;;5.03;4.53;;;11.50;99.90;;;;;;5065542;28;20571;-61
2023/01/05 00:35:59;;;;;;;11.80;5.27;;;11.50;99.90;;;;;;5060874;28;20906;-62
2023/01/05 00:38:25;;;;;;;5.10;4.20;;;11.50;99.90;;;;;;5081679;28;20483;-62
2023/01/05 00:40:54;;;;;;;28.73;5.20;;;11.50;99.90;;;;;;5052892;28;20474;-62
2023/01/05 00:43:21;;;;;;;13.20;4.27;;;11.50;99.90;;;;;;5065894;28;23686;-62
2023/01/05 00:45:47;;;;;;;7.90;6.10;;;11.60;99.90;;;;;;5053859;28;20853;-62
2023/01/05 00:48:14;;;;;;;5.07;4.10;;;11.50;99.90;;;;;;5060015;28;21198;-62
2023/01/05 00:50:40;;;;;;;10.30;4.20;;;10.80;99.90;;;;;;5058177;28;20483;-62
2023/01/05 00:53:07;;;;;;;8.80;6.40;;;11.60;99.90;;;;;;5054708;28;20533;-62
2023/01/05 00:55:35;;;;;;;4.63;4.03;;;11.60;99.90;;;;;;5054722;28;20533;-61
2023/01/05 00:58:03;;;;;;;10.00;4.50;;;11.60;99.90;;;;;;5054568;28;20475;-62
2023/01/05 01:00:30;;;;;;;8.30;6.73;;;11.60;99.90;;;;;;5050802;28;20492;-62
2023/01/05 01:02:57;;;;;;;10.33;7.37;;;11.50;99.90;;;;;;5052664;28;20494;-61
2023/01/05 01:05:24;;;;;;;10.80;5.50;;;11.40;99.90;;;;;;5052523;28;20480;-62
2023/01/05 01:07:50;;;;;;;6.53;4.93;;;11.50;99.90;;;;;;5051092;28;20486;-62
2023/01/05 01:10:17;;;;;;;9.30;6.80;;;11.50;99.90;;;;;;5049822;28;20479;-61
2023/01/05 01:12:43;;;;;;;13.83;6.10;;;11.50;99.90;;;;;;5063195;28;20477;-62
2023/01/05 01:15:12;;;;;;;13.80;8.00;;;11.50;99.90;;;;;;5065415;28;20481;-63
2023/01/05 01:17:38;;;;;;;7.23;4.80;;;11.60;99.90;;;;;;5068061;28;20491;-62
2023/01/05 01:20:06;;;;;;;11.03;5.70;;;11.60;99.90;;;;;;5053653;28;20487;-62
2023/01/05 01:22:33;;;;;;;6.40;3.37;;;11.60;99.90;;;;;;5050971;28;20475;-61
2023/01/05 01:25:00;;;;;;;10.70;7.10;;;11.60;99.90;;;;;;5056075;28;20472;-62
2023/01/05 01:27:27;;;;;;;6.67;3.77;;;11.50;99.90;;;;;;5059820;28;21028;-62
2023/01/05 01:29:53;;;;;;;5.50;4.13;;;11.70;99.90;;;;;;5076066;28;20477;-61
2023/01/05 01:32:23;;;;;;;8.33;6.23;;;11.70;99.90;;;;;;5073266;27;20912;-62
2023/01/05 01:34:50;;;;;;;8.23;3.77;;;11.70;99.90;;;;;;5086484;27;20477;-62
2023/01/05 01:37:17;;;;;;;5.13;3.93;;;11.80;99.90;;;;;;5054957;28;20472;-61
2023/01/05 01:39:43;;;;;;;5.80;4.40;;;11.80;99.90;;;;;;5053354;28;20487;-62
2023/01/05 01:42:13;;;;;;;9.43;5.53;;;11.80;99.90;;;;;;5048500;28;20909;-62
2023/01/05 01:45:12;;;;;;;3.60;2.70;;;11.90;99.90;;;;;;5069613;28;21073;-61
2023/01/05 01:47:43;;;;;;;5.73;4.50;;;12.00;99.90;;;;;;5037209;28;20522;-62
2023/01/05 01:50:15;;;;;;;10.30;7.33;;;12.00;99.90;;;;;;5054019;28;20546;-61
2023/01/05 01:52:44;;;;;;;10.37;4.23;;;12.00;99.90;;;;;;5059419;28;20583;-62
2023/01/05 01:55:11;;;;;;;11.03;7.43;;;12.00;99.90;;;;;;5045272;27;20507;-61
2023/01/05 01:57:39;;;;;;;7.70;4.80;;;12.00;99.90;;;;;;5085289;27;20909;-61
2023/01/05 02:00:08;;;;;;;16.60;8.20;;;11.90;99.90;;;;;;5051633;28;21058;-61
2023/01/05 02:02:35;;;;;;;3.40;2.80;;;12.00;99.90;;;;;;5071781;28;20483;-61
2023/01/05 02:05:08;;;;;;;12.43;7.73;;;12.00;99.90;;;;;;5049576;28;21017;-63
2023/01/05 02:07:43;;;;;;;6.90;4.93;;;12.10;99.90;;;;;;5075539;28;20489;-62
2023/01/05 02:10:09;;;;;;;9.53;6.70;;;12.10;99.90;;;;;;5060989;28;20470;-61
2023/01/05 02:12:45;;;;;;;9.67;4.37;;;12.20;99.90;;;;;;5053075;28;20465;-61
2023/01/05 02:15:24;;;;;;;8.40;5.87;;;12.20;99.90;;;;;;5064625;28;20597;-60
2023/01/05 02:18:02;;;;;;;10.00;4.97;;;12.20;99.90;;;;;;5044008;28;20479;-61
2023/01/05 02:20:45;;;;;;;9.57;5.93;;;12.20;99.90;;;;;;5063750;28;20962;-61
2023/01/05 02:23:47;;;;;;;5.77;4.20;;;12.40;99.90;;;;;;5059096;28;20477;-61
2023/01/05 02:26:50;;;;;;;7.30;4.00;;;12.40;99.90;;;;;;5048760;28;20544;-61
2023/01/05 02:29:43;;;;;;;12.80;4.50;;;12.30;99.90;;;;;;5050229;28;20463;-62
2023/01/05 02:32:16;;;;;;;9.33;6.43;;;12.30;99.90;;;;;;5048379;28;20910;-62
2023/01/05 02:34:51;;;;;;;14.17;5.13;;;12.30;99.90;;;;;;5041705;28;20475;-63
2023/01/05 02:37:27;;;;;;;6.27;4.80;;;12.30;99.90;;;;;;5051638;28;20475;-62
2023/01/05 02:39:58;;;;;;;9.03;4.43;;;12.30;99.90;;;;;;5049488;28;20482;-62
2023/01/05 02:42:28;;;;;;;6.00;4.40;;;12.30;99.90;;;;;;5047528;28;20473;-63
2023/01/05 02:44:54;;;;;;;6.07;4.57;;;12.30;99.90;;;;;;5070608;28;20898;-62
2023/01/05 02:47:39;;;;;;;7.33;4.17;;;12.40;99.90;;;;;;5048025;28;20477;-62
2023/01/05 02:50:12;;;;;;;10.03;7.00;;;12.50;99.90;;;;;;5066790;27;20530;-62
2023/01/05 02:52:42;;;;;;;4.90;3.43;;;12.50;99.90;;;;;;5077045;28;20495;-62
2023/01/05 02:55:13;;;;;;;7.50;5.80;;;12.50;99.90;;;;;;5041963;28;20548;-62
2023/01/05 02:57:49;;;;;;;4.90;3.97;;;12.50;99.90;;;;;;5065683;27;20481;-62
2023/01/05 03:00:19;;;;;;;7.70;6.20;;;12.50;99.90;;;;;;5047610;28;20793;-62
2023/01/05 03:02:49;;;;;;;7.97;6.03;;;12.50;99.90;;;;;;5068522;28;20915;-61
2023/01/05 03:05:22;;;;;;;9.93;5.70;;;12.60;99.90;;;;;;5067087;28;20908;-62
2023/01/05 03:07:51;;;;;;;6.83;4.40;;;12.50;99.90;;;;;;5048024;28;20481;-62
2023/01/05 03:15:57;;;;;;;5.73;4.17;;;12.60;99.90;;;;;;5061317;28;21125;-62
2023/01/05 03:18:27;;;;;;;12.63;5.10;;;12.60;99.90;;;;;;5046495;28;21930;-62
2023/01/05 03:20:55;;;;;;;9.33;3.70;;;12.60;99.90;;;;;;5061138;28;20562;-62
2023/01/05 03:37:31;;;;;;;8.10;4.70;;;12.80;99.90;;;;;;5049750;28;20478;-62
2023/01/05 03:39:59;;;;;;;7.97;5.47;;;12.90;99.90;;;;;;5038477;28;20470;-62
2023/01/05 03:42:28;;;;;;;6.87;5.00;;;12.90;99.90;;;;;;5060807;28;20475;-63
2023/01/05 03:44:55;;;;;;;14.47;3.97;;;12.80;99.90;;;;;;5063719;28;20488;-62
2023/01/05 03:47:23;;;;;;;10.90;4.10;;;12.80;99.90;;;;;;5063767;28;20481;-62
2023/01/05 03:49:52;;;;;;;5.00;3.80;;;12.80;99.90;;;;;;5061878;28;20483;-62
2023/01/05 03:52:18;;;;;;;11.33;4.27;;;12.80;99.90;;;;;;5040948;28;20567;-63
2023/01/05 03:54:45;;;;;;;14.83;5.10;;;12.80;99.90;;;;;;5067908;28;20495;-62
2023/01/05 03:57:12;;;;;;;9.07;6.10;;;12.80;99.90;;;;;;5052057;28;20525;-63
2023/01/05 03:59:38;;;;;;;20.47;4.07;;;12.70;99.90;;;;;;5056950;28;20484;-61
2023/01/05 04:02:05;;;;;;;31.43;9.13;;;12.80;99.90;;;;;;5074912;28;20605;-62
2023/01/05 04:04:31;;;;;;;26.00;5.43;;;12.80;99.90;;;;;;5052071;28;21031;-61
2023/01/05 04:06:59;;;;;;;21.80;3.70;;;12.60;99.90;;;;;;5046988;28;20487;-61
2023/01/05 04:09:26;;;;;;;29.50;6.67;;;;;;;;;;5051513;28;20483;-62
2023/01/05 04:11:53;;;;;;;24.30;7.50;;;12.50;99.90;;;;;;5043294;28;20818;-62
2023/01/05 04:14:20;;;;;;;35.87;5.73;;;12.60;99.90;;;;;;5070527;28;20520;-62
2023/01/05 04:16:47;;;;;;;23.83;7.13;;;;;;;;;;5061634;28;20486;-62
2023/01/05 04:19:14;;;;;;;38.63;7.60;;;;;;;;;;5039822;28;20845;-61
2023/01/05 04:21:41;;;;;;;45.20;6.10;;;;;;;;;;5052239;28;20480;-62
2023/01/05 04:24:10;;;;;;;25.33;7.27;;;12.60;99.90;;;;;;5073021;28;21042;-61
2023/01/05 04:26:38;;;;;;;29.80;6.20;;;12.60;99.90;;;;;;5041977;28;20880;-62
2023/01/05 04:29:05;;;;;;;32.07;7.80;;;;;;;;;;5077004;28;20590;-62
2023/01/05 04:31:32;;;;;;;25.37;6.60;;;12.60;99.90;;;;;;5048839;28;20467;-61
2023/01/05 04:33:59;;;;;;;29.90;6.67;;;12.60;99.90;;;;;;5048194;28;20797;-61
2023/01/05 04:36:26;;;;;;;24.03;5.57;;;12.60;99.90;;;;;;5060989;28;20477;-62
2023/01/05 04:38:52;;;;;;;24.07;8.23;;;12.60;99.90;;;;;;5069064;28;20486;-62
2023/01/05 04:41:20;;;;;;;28.70;7.37;;;12.60;99.90;;;;;;5071692;28;20487;-62
2023/01/05 04:43:47;;;;;;;18.20;5.70;;;12.60;99.90;;;;;;5072908;27;20476;-62
2023/01/05 04:46:14;;;;;;;25.67;6.77;;;12.50;99.90;;;;;;5063530;28;20891;-62
2023/01/05 04:48:40;;;;;;;19.90;5.00;;;12.50;99.90;;;;;;5054031;28;21023;-62
2023/01/05 04:51:07;;;;;;;26.77;5.73;;;12.50;99.90;;;;;;5040300;28;21184;-62
2023/01/05 04:53:34;;;;;;;29.83;6.50;;;12.50;99.90;;;;;;5053215;28;20484;-61
2023/01/05 04:56:00;;;;;;;20.67;5.87;;;12.50;99.90;;;;;;5074501;28;20492;-62
2023/01/05 04:58:28;;;;;;;27.13;4.47;;;12.50;99.90;;;;;;5053623;28;20475;-62
2023/01/05 05:00:55;;;;;;;24.63;5.43;;;12.50;99.90;;;;;;5049540;28;20486;-61
2023/01/05 05:03:22;;;;;;;31.83;6.80;;;;;;;;;;5083554;27;20877;-62
2023/01/05 05:05:48;;;;;;;40.27;11.27;;;12.50;99.90;;;;;;5055349;28;20500;-62
2023/01/05 05:08:15;;;;;;;25.10;6.77;;;12.60;99.90;;;;;;5076790;28;20492;-62
2023/01/05 05:10:42;;;;;;;11.33;4.63;;;;;;;;;;5064194;28;21470;-62
2023/01/05 05:13:09;;;;;;;28.73;6.73;;;;;;;;;;5071928;28;20879;-62
2023/01/05 05:15:37;;;;;;;26.00;5.87;;;12.60;99.90;;;;;;5071406;28;20504;-62
2023/01/05 05:18:04;;;;;;;30.43;9.70;;;12.60;99.90;;;;;;5043770;28;20841;-62
2023/01/05 05:20:31;;;;;;;31.90;6.90;;;12.70;99.90;;;;;;5064891;28;20851;-62
2023/01/05 05:22:58;;;;;;;21.63;8.47;;;;;;;;;;5077028;28;20895;-62
2023/01/05 05:25:25;;;;;;;28.23;6.00;;;;;;;;;;5079043;28;20489;-62
2023/01/05 05:27:51;;;;;;;28.27;5.47;;;12.70;99.90;;;;;;5062091;28;20779;-61
2023/01/05 05:30:18;;;;;;;27.47;7.27;;;12.70;99.90;;;;;;5059195;28;20536;-61
2023/01/05 05:32:46;;;;;;;18.47;5.10;;;12.70;99.90;;;;;;5078536;28;20893;-62
2023/01/05 05:35:13;;;;;;;35.07;5.80;;;12.60;99.90;;;;;;5045211;28;20495;-62
2023/01/05 05:37:39;;;;;;;17.30;4.80;;;12.60;99.90;;;;;;5086561;28;20943;-62
2023/01/05 05:40:07;;;;;;;19.50;5.93;;;12.60;99.90;;;;;;5057992;28;20487;-62
2023/01/05 05:42:34;;;;;;;18.83;3.27;;;12.60;99.90;;;;;;5050109;28;20535;-62
2023/01/05 05:45:01;;;;;;;21.50;7.60;;;12.50;99.90;;;;;;5075601;28;20705;-62
2023/01/05 05:47:27;;;;;;;25.47;6.17;;;12.50;99.90;;;;;;5064640;28;20754;-62
2023/01/05 05:49:55;;;;;;;26.13;4.47;;;12.50;99.90;;;;;;5073330;28;20489;-62
2023/01/05 05:52:22;;;;;;;17.10;5.27;;;12.50;99.90;;;;;;5053303;28;20480;-61
2023/01/05 05:54:50;;;;;;;21.57;6.77;;;;;;;;;;5053540;28;20883;-62
2023/01/05 05:57:16;;;;;;;19.67;4.23;;;12.40;99.90;;;;;;5063721;28;20498;-62
2023/01/05 05:59:43;;;;;;;19.03;4.63;;;12.40;99.90;;;;;;5053921;28;20476;-62
2023/01/05 06:02:10;;;;;;;29.53;7.90;;;12.40;99.90;;;;;;5058142;28;20616;-62
2023/01/05 06:04:36;;;;;;;29.43;5.90;;;12.30;99.90;;;;;;5070940;28;20468;-61
2023/01/05 06:07:04;;;;;;;30.47;11.13;;;12.40;99.90;;;;;;5049701;28;20553;-62
2023/01/05 06:09:31;;;;;;;14.67;3.80;;;12.30;99.90;;;;;;5052498;28;20479;-62
2023/01/05 06:11:58;;;;;;;27.60;5.10;;;12.40;99.90;;;;;;5051318;28;20498;-62
2023/01/05 06:14:24;;;;;;;21.63;5.67;;;12.40;99.90;;;;;;5057966;28;20483;-62
2023/01/05 06:16:51;;;;;;;18.73;7.37;;;12.50;99.90;;;;;;5058497;28;20479;-62
2023/01/05 06:19:18;;;;;;;25.30;5.80;;;12.40;99.90;;;;;;5064632;28;20686;-62
2023/01/05 06:21:45;;;;;;;19.73;4.37;;;;;;;;;;5067177;28;20601;-61
2023/01/05 06:24:13;;;;;;;28.50;9.40;;;12.30;99.90;;;;;;5070787;28;20937;-63
2023/01/05 06:26:39;;;;;;;30.73;6.07;;;12.40;99.90;;;;;;5052280;28;20852;-61
2023/01/05 06:29:06;;;;;;;28.37;9.77;;;12.50;99.90;;;;;;5067220;28;20530;-62
2023/01/05 06:31:33;;;;;;;34.03;7.00;;;12.30;99.90;;;;;;5057354;28;20545;-61
2023/01/05 06:33:59;;;;;;;30.10;5.43;;;12.40;99.90;;;;;;5069937;28;20479;-62
2023/01/05 06:36:26;;;;;;;27.83;7.00;;;12.30;99.90;;;;;;5070747;28;20478;-61
2023/01/05 06:38:53;;;;;;;31.03;5.97;;;12.40;99.90;;;;;;5064338;28;20487;-61
2023/01/05 06:41:21;;;;;;;34.23;5.63;;;;;;;;;;5050680;28;20470;-61
2023/01/05 06:43:48;;;;;;;24.57;7.03;;;12.30;99.90;;;;;;5049559;28;20500;-62
2023/01/05 06:46:14;;;;;;;29.50;9.60;;;12.20;99.90;;;;;;5070919;28;20474;-62
2023/01/05 06:48:41;;;;;;;38.43;5.60;;;12.10;99.90;;;;;;5081957;28;20492;-62
2023/01/05 06:51:08;;;;;;;25.20;6.33;;;12.20;99.90;;;;;;5048206;28;20499;-62
2023/01/05 06:53:35;;;;;;;31.30;6.47;;;12.20;99.90;;;;;;5083364;28;20825;-61
2023/01/05 06:56:01;;;;;;;24.23;5.80;;;12.20;99.90;;;;;;5076488;28;20470;-62
2023/01/05 06:58:30;;;;;;;23.47;6.17;;;;;;;;;;5061313;28;21095;-62
2023/01/05 07:00:57;;;;;;;26.57;6.77;;;;;;;;;;5074463;28;20846;-62
2023/01/05 07:03:23;;;;;;;30.57;5.40;;;12.30;99.90;;;;;;5050582;28;21066;-61
2023/01/05 07:05:51;;;;;;;24.80;7.00;;;12.20;99.90;;;;;;5055874;28;20479;-61
2023/01/05 07:08:18;;;;;;;32.43;6.50;;;;;;;;;;5043180;28;20467;-62
2023/01/05 07:10:45;;;;;;;23.47;4.60;;;12.20;99.90;;;;;;5074150;28;20494;-61
2023/01/05 07:13:11;;;;;;;23.17;7.90;;;12.20;99.90;;;;;;5044728;28;20468;-62
2023/01/05 07:15:40;;;;;;;28.73;5.53;;;;;;;;;;5057386;28;20521;-61
2023/01/05 07:18:07;;;;;;;35.57;6.20;;;;;;;;;;5068045;28;20467;-62
2023/01/05 07:20:34;;;;;;;23.80;4.90;;;12.20;99.90;;;;;;5055573;28;20808;-61
2023/01/05 07:23:01;;;;;;;23.73;7.37;;;12.20;99.90;;;;;;5061562;28;20487;-61
2023/01/05 07:25:30;;;;;;;32.37;5.10;;;12.10;99.90;;;;;;5037571;28;20486;-61
2023/01/05 07:27:57;;;;;;;26.77;7.13;;;12.20;99.90;;;;;;5078981;28;20517;-60
2023/01/05 07:30:24;;;;;;;30.03;7.60;;;12.10;99.90;;;;;;5075688;28;20481;-61
2023/01/05 07:32:51;;;;;;;42.60;7.47;;;12.10;99.90;;;;;;5066370;28;20599;-61
2023/01/05 07:35:21;;;;;;;27.07;6.47;;;12.10;99.90;;;;;;5047090;28;20480;-61
2023/01/05 07:37:55;;;;;;;18.63;6.10;;;12.10;99.90;;;;;;5050200;28;20480;-61
2023/01/05 07:40:23;;;;;;;34.97;7.90;;;;;;;;;;5052739;28;20860;-60
2023/01/05 07:42:51;;;;;;;19.17;6.00;;;12.10;99.90;;;;;;5065162;28;20487;-60
2023/01/05 07:45:17;;;;;;;24.83;7.43;;;12.00;99.90;;;;;;5047770;28;20487;-61
2023/01/05 07:47:44;;;;;;;16.53;4.70;;;12.10;99.90;;;;;;5061493;28;20481;-61
2023/01/05 07:50:12;;;;;;;27.77;8.70;;;14.30;99.90;;;;;;5046458;28;20564;-61
2023/01/05 07:52:39;;;;;;;25.50;5.30;;;12.00;99.90;;;;;;5038600;28;20492;-61
2023/01/05 07:55:07;;;;;;;29.80;9.00;;;12.00;99.90;;;;;;5081022;28;20477;-61
2023/01/05 07:57:34;;;;;;;26.23;5.73;;;;;;;;;;5061271;28;20579;-62
2023/01/05 08:00:01;;;;;;;32.07;8.03;;;;;;;;;;5052430;28;20557;-62
2023/01/05 08:02:27;;;;;;;24.80;5.70;;;12.00;99.90;;;;;;5051251;28;20552;-61
2023/01/05 08:04:54;;;;;;;19.20;6.00;;;12.00;99.90;;;;;;5066361;28;20891;-61
2023/01/05 08:07:22;;;;;;;31.00;8.10;;;12.00;99.90;;;;;;5047568;28;20476;-62
2023/01/05 08:13:58;;;;;;;27.77;4.60;;;12.00;99.90;;;;;;5065294;28;20628;-62
2023/01/05 08:15:20;;;;;;;38.63;6.87;;;12.00;99.90;;;;;;5065988;28;20493;-61
2023/01/05 08:17:47;;;;;;;28.77;6.30;;;;;;;;;;5081139;28;20485;-61
2023/01/05 08:20:14;;;;;;;27.60;8.47;;;12.00;99.90;;;;;;5054039;28;20560;-61
2023/01/05 08:22:42;;;;;;;29.40;5.80;;;11.90;99.90;;;;;;5057074;28;20479;-61
2023/01/05 08:25:09;;;;;;;22.50;8.03;;;12.00;99.90;;;;;;5050505;28;21008;-61
2023/01/05 08:27:36;;;;;;;25.73;7.03;;;;;;;;;;5060497;28;20477;-62
2023/01/05 08:30:03;;;;;;;39.53;10.37;;;;;;;;;;5075450;28;20482;-61
2023/01/05 08:32:30;;;;;;;30.43;6.43;;;12.00;99.90;;;;;;5038143;28;20486;-61
2023/01/05 08:34:57;;;;;;;31.30;7.97;;;12.00;99.90;;;;;;5082781;28;20714;-62
2023/01/05 08:37:23;;;;;;;26.23;7.30;;;12.00;99.90;;;;;;5044023;28;20518;-61
2023/01/05 08:39:52;;;;;;;23.43;6.63;;;;;;;;;;5059245;28;20498;-62
2023/01/05 08:42:19;;;;;;;29.30;5.90;;;;;;;;;;5061182;28;21021;-62
2023/01/05 08:44:45;;;;;;;31.20;6.60;;;12.10;99.90;;;;;;5064155;28;20492;-61
2023/01/05 08:47:12;;;;;;;36.47;9.00;;;12.10;99.90;;;;;;5050043;28;20479;-61
2023/01/05 08:49:39;;;;;;;19.23;6.73;;;12.20;99.90;;;;;;5067353;28;21009;-61
2023/01/05 08:52:07;;;;;;;34.20;8.23;;;;;;;;;;5066651;28;20494;-62
2023/01/05 08:54:34;;;;;;;18.40;5.20;;;;;;;;;;5061289;28;20631;-61
2023/01/05 08:57:02;;;;;;;23.93;6.90;;;;;;;;;;5069945;28;20495;-61
2023/01/05 08:59:29;;;;;;;32.70;6.83;;;12.30;99.90;;;;;;5047354;28;20533;-61
2023/01/05 09:01:55;;;;;;;26.53;6.30;;;12.50;99.90;;;;;;5052476;28;21008;-62
2023/01/05 09:04:22;;;;;;;20.23;6.70;;;12.40;99.90;;;;;;5058973;28;20472;-62
2023/01/05 09:06:49;;;;;;;24.27;6.10;;;12.40;99.90;;;;;;5049315;28;20490;-61
2023/01/05 09:09:16;;;;;;;21.50;5.37;;;;;;;;;;5058683;28;20494;-62
2023/01/05 09:11:43;;;;;;;22.77;5.77;;;12.20;99.90;;;;;;5038428;28;20979;-62
2023/01/05 09:14:14;;;;;;;22.20;8.00;;;12.30;99.90;;;;;;5063886;28;20486;-62
2023/01/05 09:16:41;;;;;;;32.80;4.83;;;12.30;99.90;;;;;;5049599;28;20471;-61
2023/01/05 09:19:09;;;;;;;31.40;7.73;;;12.30;99.90;;;;;;5042210;28;20794;-62
2023/01/05 09:21:38;;;;;;;18.20;3.37;;;12.40;99.90;;;;;;5047093;28;20491;-60
2023/01/05 09:24:06;;;;;;;33.63;5.63;;;12.40;99.90;;;;;;5048074;28;20487;-60
2023/01/05 09:26:33;;;;;;;32.37;7.40;;;12.50;99.90;;;;;;5050068;28;20874;-61
2023/01/05 09:29:00;;;;;;;40.27;8.37;;;12.50;99.90;;;;;;5054317;28;20474;-60
2023/01/05 09:31:28;;;;;;;27.50;6.30;;;12.60;99.90;;;;;;5068240;28;21009;-60
2023/01/05 09:33:56;;;;;;;29.63;6.77;;;12.60;99.90;;;;;;5048380;28;20528;-61
2023/01/05 09:36:24;;;;;;;15.40;4.90;;;12.60;99.90;;;;;;5062859;28;20541;-61
2023/01/05 09:38:51;;;;;;;26.40;4.40;;;12.70;99.90;;;;;;5053126;28;20515;-61
2023/01/05 09:41:22;;;;;;;24.33;6.50;;;12.70;99.90;;;;;;5058210;28;21022;-61
2023/01/05 09:43:51;;;;;;;32.70;7.40;;;;;;;;;;5054603;28;20755;-61
2023/01/05 09:46:21;;;;;;;30.57;5.73;;;12.70;99.90;;;;;;5065673;28;21015;-61
2023/01/05 09:48:52;;;;;;;32.70;7.13;;;12.80;99.90;;;;;;5050323;28;20484;-61
2023/01/05 09:51:19;;;;;;;16.70;5.30;;;;;;;;;;5048254;28;20495;-62
2023/01/05 09:53:46;;;;;;;26.77;6.93;;;;;;;;;;5057317;28;20473;-61
2023/01/05 09:56:27;;;;;;;25.63;7.77;;;12.60;99.90;;;;;;5050497;28;20537;-61
2023/01/05 09:59:02;;;;;;;34.70;7.80;;;12.60;99.90;;;;;;5073662;28;20852;-61
2023/01/05 10:01:32;;;;;;;34.43;6.17;;;12.60;99.90;;;;;;5067123;28;20481;-61
2023/01/05 10:04:03;;;;;;;46.10;7.83;;;;;;;;;;5051923;28;20552;-61
2023/01/05 10:06:33;;;;;;;21.43;6.73;;;12.70;99.90;;;;;;5066234;28;20493;-61
2023/01/05 10:09:01;;;;;;;22.93;7.03;;;12.70;99.90;;;;;;5064389;28;21222;-61
2023/01/05 10:14:26;;;;;;;31.67;5.90;;;;;;;;;;5000670;28;20591;-61
2023/01/05 10:16:53;;;;;;;30.07;7.87;;;12.90;99.90;;;;;;5042947;28;20498;-61
2023/01/05 10:19:21;;;;;;;21.60;7.00;;;12.80;99.90;;;;;;5053407;28;20492;-61
2023/01/05 10:21:58;;;;;;;30.07;6.17;;;12.90;99.90;;;;;;5046932;28;20483;-61
2023/01/05 10:24:35;;;;;;;28.97;5.97;;;13.00;99.90;;;;;;5055443;28;20473;-61
2023/01/05 10:27:07;;;;;;;32.73;7.43;;;13.10;99.90;;;;;;5078381;28;20489;-62
2023/01/05 10:29:42;;;;;;;24.53;6.17;;;14.60;99.90;;;;;;5048045;28;20514;-62
2023/01/05 10:32:17;;;;;;;20.07;7.17;;;13.30;99.90;;;;;;5066712;28;20954;-62
2023/01/05 10:34:56;;;;;;;20.60;6.63;;;13.50;99.90;;;;;;5058928;28;21073;-62
2023/01/05 10:37:34;;;;;;;21.10;4.97;;;;;;;;;;5058765;28;20590;-62
2023/01/05 10:40:14;;;;;;;25.63;6.37;;;13.80;99.90;;;;;;5048652;28;20566;-61
2023/01/05 10:42:54;;;;;;;20.03;5.70;;;13.80;99.90;;;;;;5033577;28;20494;-61
2023/01/05 10:45:21;;;;;;;26.20;7.27;;;13.70;99.90;;;;;;5042496;28;20479;-61
2023/01/05 10:47:49;;;;;;;19.37;5.50;;;13.60;99.90;;;;;;5055537;28;20471;-61
2023/01/05 10:50:36;;;;;;;24.90;7.23;;;13.50;99.90;;;;;;5063946;28;20868;-62
2023/01/05 10:53:08;;;;;;;36.77;8.97;;;;;;;;;;5042988;28;20479;-61
2023/01/05 10:55:44;;;;;;;25.30;4.03;;;13.90;99.90;;;;;;5080360;28;20491;-61
2023/01/05 10:58:21;;;;;;;18.43;6.10;;;14.10;99.90;;;;;;5053354;28;20467;-62
2023/01/05 11:00:49;;;;;;;23.17;5.93;;;14.30;99.90;;;;;;5047704;28;20491;-62
2023/01/05 11:03:18;;;;;;;19.70;5.87;;;14.40;99.90;;;;;;5040761;28;20702;-62
2023/01/05 11:05:48;;;;;;;55.37;11.57;;;14.50;99.90;;;;;;5052087;28;20483;-62
2023/01/05 11:08:17;;;;;;;38.33;9.07;;;14.80;99.90;;;;;;5043563;28;20487;-62
2023/01/05 11:10:52;;;;;;;21.93;5.20;;;;;;;;;;5039472;28;21021;-62
2023/01/05 11:13:24;;;;;;;34.20;6.27;;;15.20;99.90;;;;;;5053272;28;20488;-62
2023/01/05 11:15:54;;;;;;;29.97;6.47;;;15.30;99.90;;;;;;5055266;28;21138;-62
2023/01/05 11:18:26;;;;;;;13.90;4.87;;;15.20;99.90;;;;;;5046433;28;20482;-62
2023/01/05 11:21:13;;;;;;;31.90;6.87;;;15.00;99.90;;;;;;5053412;28;21016;-62
2023/01/05 11:23:41;;;;;;;20.53;4.60;;;;;;;;;;5057251;28;20943;-62
2023/01/05 11:26:30;;;;;;;30.47;8.13;;;14.70;99.90;;;;;;5065753;28;20486;-62
2023/01/05 11:29:16;;;;;;;39.57;8.13;;;14.90;99.90;;;;;;5074153;28;20470;-61
2023/01/05 11:31:44;;;;;;;29.33;5.30;;;;;;;;;;5042206;28;20477;-61
2023/01/05 11:34:41;;;;;;;23.90;6.67;;;15.40;99.80;;;;;;5070012;28;20506;-61
2023/01/05 11:37:22;;;;;;;23.00;6.47;;;15.40;98.90;;;;;;5033030;28;20475;-62
2023/01/05 11:39:53;;;;;;;31.03;7.80;;;15.20;98.80;;;;;;5062166;28;20469;-62
2023/01/05 11:42:29;;;;;;;17.87;5.50;;;15.00;98.90;;;;;;5056506;28;20466;-62
2023/01/05 11:44:58;;;;;;;27.80;5.70;;;15.00;99.60;;;;;;5047883;28;20817;-62
2023/01/05 11:47:27;;;;;;;17.30;5.80;;;;;;;;;;5043574;28;20497;-61
2023/01/05 11:49:59;;;;;;;27.30;6.63;;;;;;;;;;5039812;28;20510;-62
2023/01/05 11:52:33;;;;;;;33.43;6.10;;;15.10;99.30;;;;;;5073212;28;20485;-61
2023/01/05 11:55:00;;;;;;;27.03;6.60;;;14.90;99.20;;;;;;5059783;28;20558;-62
2023/01/05 11:57:27;;;;;;;24.33;5.47;;;14.70;99.50;;;;;;5072886;28;21024;-61
2023/01/05 11:59:57;;;;;;;22.27;5.33;;;14.60;99.90;;;;;;5065712;28;20481;-61
2023/01/05 12:03:01;;;;;;;25.77;6.50;;;14.40;99.90;;;;;;5070136;28;20487;-62
2023/01/05 12:05:36;;;;;;;27.70;5.67;;;14.20;99.90;;;;;;5073359;28;20525;-62
2023/01/05 12:08:08;;;;;;;30.50;6.30;;;;;;;;;;5045173;28;20483;-61
2023/01/05 12:10:57;;;;;;;33.17;7.30;;;14.00;99.90;;;;;;5062471;28;20913;-61
2023/01/05 12:13:42;;;;;;;21.80;5.60;;;;;;;;;;5055077;28;20658;-62
2023/01/05 12:16:21;;;;;;;29.10;9.60;;;13.70;99.90;;;;;;5048664;28;20483;-61
2023/01/05 12:19:23;;;;;;;31.13;6.00;;;13.60;99.90;;;;;;5041045;28;20494;-62
2023/01/05 12:22:01;;;;;;;29.33;7.10;;;13.50;99.90;;;;;;5057278;28;21016;-61
2023/01/05 12:24:56;;;;;;;23.50;6.23;;;13.50;99.90;;;;;;5056621;28;20537;-61
2023/01/05 12:27:33;;;;;;;20.37;7.00;;;;;;;;;;5057125;28;20483;-61
2023/01/05 12:30:12;;;;;;;32.27;6.87;;;13.50;99.90;;;;;;5069389;28;20960;-61
2023/01/05 12:33:00;;;;;;;20.53;5.80;;;13.40;99.90;;;;;;5053136;28;20486;-61
2023/01/05 12:35:57;;;;;;;22.13;6.10;;;13.40;99.90;;;;;;5049133;28;20495;-61
2023/01/05 12:38:28;;;;;;;23.70;5.50;;;;;;;;;;5065197;27;20485;-61
2023/01/05 12:41:33;;;;;;;28.43;7.17;;;13.50;99.90;;;;;;5061139;28;20482;-61
2023/01/05 12:44:37;;;;;;;22.20;8.73;;;13.50;99.90;;;;;;5069379;28;20489;-61
2023/01/05 12:47:19;;;;;;;29.47;10.30;;;13.60;99.90;;;;;;4955258;28;20944;-62
2023/01/05 12:49:51;;;;;;;23.77;7.37;;;13.60;99.90;;;;;;5041847;28;21091;-61
2023/01/05 12:52:21;;;;;;;27.47;5.90;;;;;;;;;;5052095;28;20476;-62
2023/01/05 12:54:55;;;;;;;19.17;6.10;;;13.70;99.90;;;;;;5038081;28;20908;-62
2023/01/05 12:57:26;;;;;;;27.03;7.03;;;13.70;99.80;;;;;;5068358;28;20994;-62
2023/01/05 13:00:00;;;;;;;27.70;6.70;;;13.80;99.60;;;;;;5045716;28;20537;-62
2023/01/05 13:02:32;;;;;;;31.90;5.63;;;13.80;99.60;;;;;;5055399;28;20568;-62
2023/01/05 13:05:01;;;;;;;24.73;7.50;;;;;;;;;;5061503;28;20995;-61
2023/01/05 13:07:32;;;;;;;25.27;6.00;;;13.70;99.40;;;;;;5056889;28;20543;-62
2023/01/05 13:10:01;;;;;;;22.13;5.10;;;;;;;;;;5062659;28;20487;-62
2023/01/05 13:12:28;;;;;;;27.50;7.27;;;;;;;;;;5049863;28;20471;-61
2023/01/05 13:15:02;;;;;;;24.70;6.77;;;;;;;;;;5070845;28;20847;-61
2023/01/05 13:17:33;;;;;;;22.37;5.67;;;13.60;99.10;;;;;;5057264;28;20484;-61
2023/01/05 13:20:04;;;;;;;28.33;8.10;;;13.60;99.00;;;;;;5039154;28;20483;-61
2023/01/05 13:22:34;;;;;;;29.87;5.77;;;;;;;;;;5049701;28;20471;-62
2023/01/05 13:25:06;;;;;;;24.03;5.17;;;13.60;99.00;;;;;;5046376;28;20492;-61
2023/01/05 13:27:33;;;;;;;25.37;6.33;;;13.50;98.70;;;;;;5045665;28;20491;-61
2023/01/05 13:30:02;;;;;;;24.97;6.13;;;;;;;;;;5052172;28;20821;-61
2023/01/05 13:32:39;;;;;;;21.13;5.40;;;13.50;98.90;;;;;;5051025;28;20873;-62
2023/01/05 13:35:22;;;;;;;28.37;7.63;;;;;;;;;;5048183;28;20499;-61
2023/01/05 13:38:05;;;;;;;22.23;7.10;;;;;;;;;;5038457;28;20930;-62
2023/01/05 13:40:48;;;;;;;34.20;7.77;;;13.50;99.00;;;;;;5065304;28;20742;-61
2023/01/05 13:44:01;;;;;;;29.27;6.73;;;13.50;99.00;;;;;;5050476;28;20482;-61
2023/01/05 13:46:52;;;;;;;31.13;7.10;;;13.50;99.20;;;;;;4980105;28;20978;-61
2023/01/05 13:50:02;;;;;;;23.73;6.60;;;13.40;99.00;;;;;;4980319;28;20533;-61